createdAt,value
2018-09-18T00:02:57.107Z,19.10
2018-09-18T00:08:19.233Z,26.53
2018-09-18T00:13:41.064Z,30.57
2018-09-18T00:19:03.449Z,21.23
2018-09-18T00:24:25.950Z,27.53
2018-09-18T00:29:47.809Z,24.03
2018-09-18T00:35:10.017Z,28.37
2018-09-18T00:40:32.011Z,25.33
2018-09-18T00:45:54.106Z,28.57
2018-09-18T00:51:15.990Z,28.77
2018-09-18T00:56:38.120Z,25.13
2018-09-18T01:02:00.609Z,30.53
2018-09-18T01:07:22.519Z,33.00
2018-09-18T01:12:44.701Z,24.93
2018-09-18T01:18:06.953Z,34.37
2018-09-18T01:23:29.022Z,34.97
2018-09-18T01:28:51.603Z,29.33
2018-09-18T01:34:13.889Z,32.43
2018-09-18T01:39:36.475Z,33.67
2018-09-18T01:44:58.554Z,32.70
2018-09-18T01:50:20.765Z,31.87
2018-09-18T01:55:42.733Z,28.73
2018-09-18T02:01:05.224Z,33.07
2018-09-18T02:06:27.042Z,33.77
2018-09-18T02:11:49.130Z,22.73
2018-09-18T02:17:10.884Z,24.37
2018-09-18T02:22:33.166Z,26.97
2018-09-18T02:27:55.018Z,25.67
2018-09-18T02:33:17.111Z,29.97
2018-09-18T02:38:38.722Z,31.17
2018-09-18T02:44:00.902Z,26.17
2018-09-18T02:49:22.734Z,31.77
2018-09-18T02:54:45.127Z,33.27
2018-09-18T03:00:06.997Z,23.20
2018-09-18T03:05:29.366Z,32.60
2018-09-18T03:10:51.557Z,38.77
2018-09-18T03:16:13.576Z,38.37
2018-09-18T03:21:35.648Z,39.93
2018-09-18T03:26:57.623Z,41.93
2018-09-18T03:32:19.900Z,35.53
2018-09-18T03:37:41.776Z,40.87
2018-09-18T03:43:03.881Z,35.33
2018-09-18T03:48:25.681Z,29.27
2018-09-18T03:53:47.746Z,24.77
2018-09-18T03:59:09.582Z,25.60
2018-09-18T04:04:31.653Z,29.33
2018-09-18T04:09:53.566Z,28.50
2018-09-18T04:15:19.136Z,25.07
2018-09-18T04:20:41.323Z,25.67
2018-09-18T04:26:03.214Z,25.53
2018-09-18T04:31:25.261Z,24.10
2018-09-18T04:36:47.030Z,21.73
2018-09-18T04:42:09.498Z,21.13
2018-09-18T04:47:31.198Z,28.90
2018-09-18T04:52:53.261Z,29.70
2018-09-18T04:58:15.040Z,30.53
2018-09-18T05:03:37.092Z,33.23
2018-09-18T05:08:58.885Z,28.13
2018-09-18T05:14:21.223Z,29.13
2018-09-18T05:19:43.665Z,27.90
2018-09-18T05:25:06.357Z,29.30
2018-09-18T05:30:28.246Z,23.67
2018-09-18T05:35:49.957Z,27.30
2018-09-18T05:41:12.062Z,21.77
2018-09-18T05:46:33.847Z,24.23
2018-09-18T05:51:55.978Z,28.50
2018-09-18T05:57:17.832Z,29.30
2018-09-18T06:02:39.737Z,28.67
2018-09-18T06:08:01.509Z,31.77
2018-09-18T06:13:23.629Z,28.40
2018-09-18T06:18:45.685Z,31.67
2018-09-18T06:24:07.773Z,33.30
2018-09-18T06:29:30.438Z,31.90
2018-09-18T06:34:52.236Z,29.47
2018-09-18T06:40:14.238Z,29.60
2018-09-18T06:45:37.313Z,32.53
2018-09-18T06:50:59.723Z,28.60
2018-09-18T06:56:22.019Z,27.73
2018-09-18T07:01:43.955Z,29.83
2018-09-18T07:07:06.176Z,27.70
2018-09-18T07:12:27.968Z,24.70
2018-09-18T07:17:50.148Z,23.67
2018-09-18T07:23:14.347Z,22.73
2018-09-18T07:28:36.214Z,33.47
2018-09-18T07:33:58.239Z,25.07
2018-09-18T07:39:20.002Z,28.33
2018-09-18T07:44:42.099Z,32.00
2018-09-18T07:50:03.937Z,24.37
2018-09-18T07:55:26.205Z,26.70
2018-09-18T08:00:48.019Z,28.60
2018-09-18T08:06:10.118Z,28.60
2018-09-18T08:11:31.859Z,28.43
2018-09-18T08:16:53.962Z,33.07
2018-09-18T08:22:15.756Z,29.37
2018-09-18T08:27:38.021Z,29.83
2018-09-18T08:32:59.861Z,27.97
2018-09-18T08:38:22.078Z,21.77
2018-09-18T08:43:43.955Z,24.70
2018-09-18T08:49:06.073Z,27.73
2018-09-18T08:54:27.843Z,23.77
2018-09-18T08:59:50.111Z,27.77
2018-09-18T09:05:12.061Z,27.33
2018-09-18T09:10:34.207Z,27.77
2018-09-18T09:15:56.012Z,27.33
2018-09-18T09:21:18.231Z,27.27
2018-09-18T09:26:40.127Z,21.67
2018-09-18T09:32:04.250Z,25.20
2018-09-18T09:37:26.419Z,18.30
2018-09-18T09:42:49.115Z,26.47
2018-09-18T09:48:10.986Z,28.73
2018-09-18T09:53:33.099Z,25.73
2018-09-18T09:58:54.970Z,24.50
2018-09-18T10:04:18.658Z,20.90
2018-09-18T10:09:40.373Z,25.70
2018-09-18T10:15:02.520Z,24.27
2018-09-18T10:20:24.385Z,25.50
2018-09-18T10:25:46.440Z,24.27
2018-09-18T10:31:08.649Z,16.30
2018-09-18T10:36:30.821Z,20.43
2018-09-18T10:41:53.182Z,22.90
2018-09-18T10:47:14.978Z,22.47
2018-09-18T10:52:37.100Z,24.40
2018-09-18T10:57:59.007Z,27.67
2018-09-18T11:03:21.261Z,27.07
2018-09-18T11:08:43.411Z,24.90
2018-09-18T11:14:06.023Z,18.83
2018-09-18T11:19:28.215Z,26.10
2018-09-18T11:24:50.067Z,22.87
2018-09-18T11:30:12.175Z,26.63
2018-09-18T11:35:34.047Z,21.50
2018-09-18T11:40:56.549Z,25.97
2018-09-18T11:46:18.773Z,17.50
2018-09-18T11:51:40.645Z,22.83
2018-09-18T11:57:02.867Z,23.30
2018-09-18T12:02:24.619Z,23.60
2018-09-18T12:07:46.685Z,20.63
2018-09-18T12:13:08.587Z,20.97
2018-09-18T12:18:30.709Z,19.53
2018-09-18T12:23:52.677Z,21.63
2018-09-18T12:29:14.829Z,23.33
2018-09-18T12:34:36.643Z,21.97
2018-09-18T12:39:58.868Z,19.50
2018-09-18T12:45:20.703Z,22.13
2018-09-18T12:50:42.785Z,19.33
2018-09-18T12:56:04.634Z,26.30
2018-09-18T13:01:26.911Z,19.47
2018-09-18T13:06:49.457Z,20.33
2018-09-18T13:12:11.232Z,12.67
2018-09-18T13:17:33.622Z,24.10
2018-09-18T13:22:55.946Z,17.07
2018-09-18T13:28:17.966Z,18.03
2018-09-18T13:33:40.273Z,19.03
2018-09-18T13:39:02.263Z,19.10
2018-09-18T13:44:24.458Z,23.10
2018-09-18T13:49:47.198Z,24.40
2018-09-18T13:55:09.280Z,24.00
2018-09-18T14:00:31.257Z,18.27
2018-09-18T14:05:53.455Z,17.07
2018-09-18T14:11:15.309Z,24.93
2018-09-18T14:16:37.460Z,17.53
2018-09-18T14:22:02.224Z,19.03
2018-09-18T14:27:24.340Z,21.70
2018-09-18T14:32:46.318Z,18.53
2018-09-18T14:38:08.673Z,18.53
2018-09-18T14:43:32.499Z,23.10
2018-09-18T14:48:54.406Z,22.43
2018-09-18T14:54:17.158Z,17.33
2018-09-18T14:59:39.575Z,19.97
2018-09-18T15:05:01.887Z,22.57
2018-09-18T15:10:23.810Z,24.30
2018-09-18T15:15:46.002Z,26.33
2018-09-18T15:21:07.894Z,21.80
2018-09-18T15:26:30.538Z,19.83
2018-09-18T15:31:52.691Z,23.30
2018-09-18T15:37:14.577Z,23.67
2018-09-18T15:42:36.734Z,21.07
2018-09-18T15:47:58.696Z,18.40
2018-09-18T15:53:20.879Z,18.80
2018-09-18T15:58:43.787Z,20.40
2018-09-18T16:04:05.735Z,18.63
2018-09-18T16:09:27.996Z,21.53
2018-09-18T16:14:49.848Z,23.33
2018-09-18T16:20:11.896Z,21.27
2018-09-18T16:25:33.691Z,16.00
2018-09-18T16:30:56.941Z,20.60
2018-09-18T16:36:18.890Z,22.83
2018-09-18T16:41:41.125Z,20.40
2018-09-18T16:47:02.986Z,18.40
2018-09-18T16:52:25.150Z,19.07
2018-09-18T16:57:47.304Z,25.13
2018-09-18T17:03:09.398Z,17.03
2018-09-18T17:08:31.064Z,22.37
2018-09-18T17:13:53.213Z,20.30
2018-09-18T17:19:14.967Z,19.63
2018-09-18T17:24:37.101Z,21.50
2018-09-18T17:29:59.241Z,20.37
2018-09-18T17:35:21.261Z,20.07
2018-09-18T17:40:42.949Z,24.27
2018-09-18T17:46:05.092Z,23.00
2018-09-18T17:51:26.836Z,21.83
2018-09-18T17:56:48.943Z,23.10
2018-09-18T18:02:11.250Z,19.40
2018-09-18T18:07:33.819Z,25.07
2018-09-18T18:12:55.921Z,24.27
2018-09-18T18:18:17.809Z,26.27
2018-09-18T18:23:39.992Z,25.90
2018-09-18T18:29:01.719Z,27.40
2018-09-18T18:34:23.765Z,25.30
2018-09-18T18:39:45.579Z,27.13
2018-09-18T18:45:07.716Z,21.57
2018-09-18T18:50:29.473Z,22.70
2018-09-18T18:55:51.924Z,24.17
2018-09-18T19:01:14.359Z,21.07
2018-09-18T19:06:36.547Z,23.77
2018-09-18T19:11:58.947Z,21.33
2018-09-18T19:17:21.316Z,28.70
2018-09-18T19:22:43.392Z,27.37
2018-09-18T19:28:05.693Z,28.20
2018-09-18T19:33:28.567Z,29.40
2018-09-18T19:38:51.153Z,26.63
2018-09-18T19:44:14.064Z,22.07
2018-09-18T19:49:41.132Z,26.33
2018-09-18T19:55:03.960Z,24.13
2018-09-18T20:00:26.662Z,29.53
2018-09-18T20:05:49.201Z,23.53
2018-09-18T20:11:11.172Z,27.50
2018-09-18T20:16:33.928Z,22.60
2018-09-18T20:21:56.482Z,27.87
2018-09-18T20:27:18.709Z,23.97
2018-09-18T20:32:40.412Z,24.93
2018-09-18T20:38:02.610Z,21.10
2018-09-18T20:43:24.408Z,21.53
2018-09-18T20:48:46.710Z,34.90
2018-09-18T20:54:08.534Z,25.30
2018-09-18T20:59:32.196Z,20.90
2018-09-18T21:04:55.723Z,24.57
2018-09-18T21:10:17.777Z,25.20
2018-09-18T21:15:39.589Z,25.80
2018-09-18T21:21:01.896Z,22.83
2018-09-18T21:26:23.790Z,24.57
2018-09-18T21:31:45.823Z,23.17
2018-09-18T21:37:07.640Z,27.47
2018-09-18T21:42:29.828Z,27.77
2018-09-18T21:47:51.769Z,23.90
2018-09-18T21:53:14.914Z,24.97
2018-09-18T21:58:36.854Z,24.67
2018-09-18T22:03:58.608Z,24.70
2018-09-18T22:09:20.609Z,27.83
2018-09-18T22:14:42.438Z,24.70
2018-09-18T22:20:04.598Z,28.30
2018-09-18T22:25:26.547Z,25.77
2018-09-18T22:30:48.817Z,22.57
2018-09-18T22:36:11.119Z,23.47
2018-09-18T22:41:32.940Z,20.00
2018-09-18T22:46:55.020Z,20.93
2018-09-18T22:52:16.897Z,19.97
2018-09-18T22:57:39.145Z,15.60
2018-09-18T23:03:00.894Z,27.37
2018-09-18T23:08:22.981Z,28.43
2018-09-18T23:13:44.773Z,27.00
2018-09-18T23:19:06.995Z,19.30
2018-09-18T23:24:28.988Z,20.03
2018-09-18T23:29:51.133Z,24.13
2018-09-18T23:35:13.005Z,21.60
2018-09-18T23:40:35.636Z,19.07
2018-09-18T23:45:57.929Z,25.90
2018-09-18T23:51:19.597Z,22.33
2018-09-18T23:56:41.612Z,26.87
